Bismarck, North Dakota
Current Conditions -  °F | °C
As of 1:52 AM on Monday 22 Dec 2014 (Local Time) from KBIS Reporting Station
Haze Haze  
Wind Chill: 23°   Ceiling: 200
Heat Index: 28°   Visibility: 3mi
Dew Point: 28°   Wind: 5mph
Humidity: 100%   Direction: 130°SE
Pressure: 29.44"   Gusts: NA
Location:  46.81°N, 100.77°W
Report Text: KBIS 220752Z AUTO 13004KT 3SM BR OVC002 M02/M02 A2944 RMK AO2 SLP986 T10221022
Loading
Personal Weather Stations






























Interactive Weather Map New forecast layout! Learn more

10-Day Weather Forecast

Advertisements
Track Severe Weather on mobile